Time;durP1;ratioP1;P1;durP2;ratioP2;P2;SDS_P1;SDS_P2;PMS_P1;PMS_P2;Temp;Humidity;BMP_temperature;BMP_pressure;BME280_temperature;BME280_humidity;BME280_pressure;Samples;Min_cycle;Max_cycle;Signal;HPM_P1;HPM_P2
2023/07/17 00:01:19;;;;;;;11.32;2.83;;;13.70;99.90;;;;;;4945588;28;20135;-80
2023/07/17 00:03:44;;;;;;;11.73;3.03;;;13.70;99.90;;;;;;4945248;28;20027;-80
2023/07/17 00:06:10;;;;;;;13.18;3.40;;;13.70;99.90;;;;;;4945420;28;21062;-81
2023/07/17 00:08:35;;;;;;;8.38;2.83;;;13.60;99.90;;;;;;4943029;29;20147;-80
2023/07/17 00:11:01;;;;;;;10.23;3.05;;;13.60;99.90;;;;;;4945565;29;20027;-79
2023/07/17 00:13:27;;;;;;;9.95;2.58;;;13.60;99.90;;;;;;4943457;29;20506;-81
2023/07/17 00:15:53;;;;;;;7.97;2.78;;;13.50;99.90;;;;;;4945106;29;20499;-80
2023/07/17 00:18:18;;;;;;;7.90;2.67;;;13.50;99.90;;;;;;4945733;28;20051;-81
2023/07/17 00:20:45;;;;;;;10.40;2.92;;;13.50;99.90;;;;;;4945378;28;20506;-80
2023/07/17 00:23:10;;;;;;;11.05;3.15;;;13.50;99.90;;;;;;4944890;28;20053;-80
2023/07/17 00:25:36;;;;;;;14.55;3.20;;;13.50;99.90;;;;;;4945115;29;20114;-81
2023/07/17 00:28:02;;;;;;;9.93;3.15;;;13.50;99.90;;;;;;4942742;29;20043;-79
2023/07/17 00:30:27;;;;;;;16.98;3.10;;;13.50;99.90;;;;;;4946056;29;20079;-80
2023/07/17 00:32:53;;;;;;;12.43;2.90;;;13.50;99.90;;;;;;4937616;29;20078;-80
2023/07/17 00:35:19;;;;;;;12.43;2.63;;;13.50;99.90;;;;;;4944542;29;20078;-80
2023/07/17 00:37:45;;;;;;;13.18;2.67;;;13.40;99.90;;;;;;4942699;29;20110;-80
2023/07/17 00:40:12;;;;;;;8.43;2.58;;;13.40;99.90;;;;;;4929240;29;20116;-81
2023/07/17 00:42:38;;;;;;;11.50;2.78;;;13.40;99.90;;;;;;4926756;29;20035;-80
2023/07/17 00:45:05;;;;;;;9.27;3.03;;;13.40;99.90;;;;;;4926149;29;20074;-80
2023/07/17 00:47:31;;;;;;;7.68;2.65;;;13.40;99.90;;;;;;4941184;29;20388;-80
2023/07/17 00:49:57;;;;;;;11.85;3.13;;;13.40;99.90;;;;;;4935814;29;20171;-79
2023/07/17 00:52:23;;;;;;;8.40;2.30;;;13.40;99.90;;;;;;4925336;29;20149;-80
2023/07/17 00:54:50;;;;;;;9.13;2.40;;;13.40;99.90;;;;;;4931567;29;20030;-80
2023/07/17 00:57:17;;;;;;;12.70;2.83;;;13.30;99.90;;;;;;4942531;29;20074;-80
2023/07/17 00:59:43;;;;;;;11.05;2.60;;;13.40;99.90;;;;;;4943532;28;20082;-81
2023/07/17 01:02:10;;;;;;;14.43;3.13;;;13.30;99.90;;;;;;4939887;29;20786;-80
2023/07/17 01:04:36;;;;;;;11.90;2.63;;;13.30;99.90;;;;;;4925774;29;20094;-80
2023/07/17 01:07:02;;;;;;;8.13;2.53;;;13.40;99.90;;;;;;4935943;29;20039;-78
2023/07/17 01:09:28;;;;;;;8.50;2.40;;;13.30;99.90;;;;;;4943968;29;20466;-79
2023/07/17 01:11:54;;;;;;;8.32;2.28;;;13.30;99.90;;;;;;4944500;29;20518;-80
2023/07/17 01:14:20;;;;;;;13.27;2.70;;;13.30;99.90;;;;;;4944118;29;20070;-80
2023/07/17 01:16:48;;;;;;;10.02;2.70;;;13.30;99.90;;;;;;4944516;29;20459;-80
2023/07/17 01:19:14;;;;;;;10.63;2.75;;;13.30;99.90;;;;;;4944562;29;20110;-80
2023/07/17 01:21:58;;;;;;;9.43;2.67;;;13.30;99.90;;;;;;4937878;29;20123;-80
2023/07/17 01:24:24;;;;;;;13.07;2.65;;;13.30;99.90;;;;;;4942280;29;20493;-80
2023/07/17 01:26:50;;;;;;;9.82;2.60;;;13.30;99.90;;;;;;4944799;28;20110;-80
2023/07/17 01:29:16;;;;;;;11.48;2.70;;;13.30;99.90;;;;;;4943923;28;20443;-80
2023/07/17 01:31:42;;;;;;;11.43;2.45;;;13.20;99.90;;;;;;4940099;28;20042;-80
2023/07/17 01:34:08;;;;;;;7.03;2.35;;;13.20;99.90;;;;;;4940287;29;20031;-80
2023/07/17 01:36:34;;;;;;;13.90;2.83;;;13.20;99.90;;;;;;4941071;29;20024;-79
2023/07/17 01:39:01;;;;;;;15.90;2.97;;;13.20;99.90;;;;;;4942069;29;20392;-80
2023/07/17 01:41:27;;;;;;;14.35;3.00;;;13.20;99.90;;;;;;4931473;29;20624;-79
2023/07/17 01:43:52;;;;;;;10.75;2.63;;;13.20;99.90;;;;;;4924832;29;20054;-80
2023/07/17 01:46:18;;;;;;;11.85;2.67;;;13.20;99.90;;;;;;4928898;29;20036;-79
2023/07/17 01:48:44;;;;;;;15.48;2.80;;;13.20;99.90;;;;;;4924879;29;20035;-80
2023/07/17 01:51:10;;;;;;;9.40;3.17;;;13.20;99.90;;;;;;4925596;29;20031;-80
2023/07/17 01:53:36;;;;;;;10.23;2.60;;;13.20;99.90;;;;;;4925061;29;20038;-80
2023/07/17 01:56:02;;;;;;;12.50;3.10;;;13.20;99.90;;;;;;4930392;29;20434;-79
2023/07/17 01:58:28;;;;;;;9.15;2.97;;;13.20;99.90;;;;;;4942775;29;20039;-79
2023/07/17 02:00:55;;;;;;;11.05;2.55;;;13.20;99.90;;;;;;4933026;28;20040;-80
2023/07/17 02:03:21;;;;;;;7.90;2.67;;;13.10;99.90;;;;;;4925129;29;20181;-79
2023/07/17 02:05:46;;;;;;;9.48;2.80;;;13.10;99.90;;;;;;4930592;29;20055;-80
2023/07/17 02:08:12;;;;;;;14.43;3.53;;;13.10;99.90;;;;;;4941486;29;20055;-79
2023/07/17 02:10:42;;;;;;;13.00;3.05;;;13.10;99.90;;;;;;4927621;29;20035;-80
2023/07/17 02:13:08;;;;;;;9.38;2.58;;;13.10;99.90;;;;;;4945728;28;20048;-80
2023/07/17 02:15:34;;;;;;;11.23;2.97;;;13.10;99.90;;;;;;4945549;29;20537;-79
2023/07/17 02:17:59;;;;;;;11.82;3.15;;;13.10;99.90;;;;;;4946738;28;20034;-80
2023/07/17 02:20:25;;;;;;;11.52;2.97;;;13.10;99.90;;;;;;4940543;28;20039;-79
2023/07/17 02:22:50;;;;;;;9.18;2.88;;;13.10;99.90;;;;;;4946415;29;20037;-79
2023/07/17 02:25:17;;;;;;;8.68;3.30;;;13.10;99.90;;;;;;4946047;29;20561;-80
2023/07/17 02:27:43;;;;;;;9.48;3.03;;;13.10;99.90;;;;;;4946208;29;20047;-80
2023/07/17 02:30:09;;;;;;;11.73;2.60;;;13.10;99.90;;;;;;4947024;29;20031;-80
2023/07/17 02:32:34;;;;;;;12.43;3.13;;;13.10;99.90;;;;;;4945177;29;20403;-80
2023/07/17 02:35:00;;;;;;;7.80;2.80;;;13.10;99.90;;;;;;4943700;28;20070;-80
2023/07/17 02:37:25;;;;;;;12.25;3.17;;;13.20;99.90;;;;;;4945504;29;20035;-79
2023/07/17 02:39:52;;;;;;;10.30;3.50;;;13.30;99.90;;;;;;4943263;29;20460;-80
2023/07/17 02:42:18;;;;;;;9.73;3.00;;;13.20;99.90;;;;;;4946517;29;20222;-80
2023/07/17 02:44:44;;;;;;;9.88;3.30;;;13.20;99.90;;;;;;4946387;28;20031;-79
2023/07/17 02:47:10;;;;;;;13.93;3.03;;;13.20;99.90;;;;;;4946920;28;20043;-79
2023/07/17 02:49:38;;;;;;;11.43;2.97;;;13.10;99.90;;;;;;4945488;29;20033;-79
2023/07/17 02:52:04;;;;;;;12.65;3.40;;;13.10;99.90;;;;;;4945165;28;20289;-79
2023/07/17 02:54:30;;;;;;;14.98;3.25;;;13.10;99.90;;;;;;4942561;29;20023;-79
2023/07/17 02:56:56;;;;;;;11.20;3.40;;;13.10;99.90;;;;;;4939781;29;20145;-80
2023/07/17 02:59:22;;;;;;;10.82;3.30;;;13.10;99.90;;;;;;4927326;29;20501;-80
2023/07/17 03:01:48;;;;;;;9.90;3.72;;;13.00;99.90;;;;;;4935112;29;20023;-80
2023/07/17 03:04:14;;;;;;;7.60;3.30;;;13.00;99.90;;;;;;4943515;29;20030;-81
2023/07/17 03:06:39;;;;;;;10.25;4.00;;;13.00;99.90;;;;;;4934688;29;20045;-79
2023/07/17 03:09:05;;;;;;;11.32;3.58;;;12.90;99.90;;;;;;4946286;29;20466;-79
2023/07/17 03:11:31;;;;;;;11.77;3.60;;;12.90;99.90;;;;;;4945159;29;20026;-79
2023/07/17 03:13:57;;;;;;;9.95;3.55;;;12.90;99.90;;;;;;4946093;29;20039;-79
2023/07/17 03:16:22;;;;;;;11.70;4.25;;;12.80;99.90;;;;;;4934747;29;20031;-80
2023/07/17 03:18:48;;;;;;;14.43;3.17;;;12.80;99.90;;;;;;4926762;29;20059;-79
2023/07/17 03:21:13;;;;;;;10.27;3.38;;;12.80;99.90;;;;;;4933222;29;20070;-81
2023/07/17 03:23:39;;;;;;;11.88;3.97;;;12.80;99.90;;;;;;4944127;28;21039;-81
2023/07/17 03:26:05;;;;;;;10.63;3.30;;;12.70;99.90;;;;;;4946031;28;20106;-81
2023/07/17 03:28:30;;;;;;;14.75;3.95;;;12.70;99.90;;;;;;4945820;28;20031;-81
2023/07/17 03:30:56;;;;;;;13.35;3.92;;;12.70;99.90;;;;;;4944049;29;20495;-81
2023/07/17 03:33:21;;;;;;;9.48;4.43;;;12.60;99.90;;;;;;4943644;29;20462;-81
2023/07/17 03:35:47;;;;;;;10.30;3.70;;;12.60;99.90;;;;;;4945118;29;20031;-81
2023/07/17 03:38:13;;;;;;;9.65;3.95;;;12.60;99.90;;;;;;4945111;29;20045;-81
2023/07/17 03:40:38;;;;;;;11.15;4.32;;;12.60;99.90;;;;;;4943534;29;20046;-80
2023/07/17 03:43:04;;;;;;;9.55;3.80;;;12.60;99.90;;;;;;4942829;29;20463;-81
2023/07/17 03:45:29;;;;;;;12.05;4.20;;;12.60;99.90;;;;;;4935285;29;20090;-81
2023/07/17 03:47:55;;;;;;;9.73;4.18;;;12.50;99.90;;;;;;4941799;29;20047;-80
2023/07/17 03:50:21;;;;;;;9.23;4.10;;;12.50;99.90;;;;;;4944795;29;20087;-81
2023/07/17 03:52:46;;;;;;;10.95;4.07;;;12.50;99.90;;;;;;4943403;29;20098;-81
2023/07/17 03:55:12;;;;;;;11.77;4.25;;;12.50;99.90;;;;;;4943602;29;20031;-81
2023/07/17 03:57:37;;;;;;;12.52;3.70;;;12.40;99.90;;;;;;4943404;28;20431;-80
2023/07/17 04:00:04;;;;;;;8.45;4.05;;;12.50;99.90;;;;;;4942167;29;20066;-81
2023/07/17 04:02:29;;;;;;;14.05;4.53;;;12.40;99.90;;;;;;4932012;29;20031;-81
2023/07/17 04:04:56;;;;;;;13.07;4.18;;;12.40;99.90;;;;;;4928983;29;20027;-81
2023/07/17 04:07:22;;;;;;;13.52;4.22;;;12.40;99.90;;;;;;4944991;29;20047;-81
2023/07/17 04:09:47;;;;;;;12.10;3.95;;;12.40;99.90;;;;;;4944926;29;20054;-81
2023/07/17 04:12:13;;;;;;;11.65;4.68;;;12.40;99.90;;;;;;4929194;29;20053;-81
2023/07/17 04:14:38;;;;;;;11.80;5.00;;;12.50;99.90;;;;;;4944636;29;20429;-81
2023/07/17 04:17:05;;;;;;;15.05;4.80;;;12.50;99.90;;;;;;4942954;29;20027;-80
2023/07/17 04:19:30;;;;;;;13.00;4.63;;;12.60;99.90;;;;;;4930117;29;20036;-81
2023/07/17 04:21:56;;;;;;;15.32;4.40;;;12.50;99.90;;;;;;4946112;29;20053;-80
2023/07/17 04:24:25;;;;;;;9.77;4.53;;;12.60;99.90;;;;;;4945960;29;20676;-80
2023/07/17 04:26:52;;;;;;;14.73;5.25;;;12.50;99.90;;;;;;4945091;29;20047;-80
2023/07/17 04:29:22;;;;;;;10.25;4.57;;;12.60;99.90;;;;;;4944728;29;20368;-80
2023/07/17 04:31:48;;;;;;;10.75;4.35;;;12.60;99.90;;;;;;4942654;29;20114;-81
2023/07/17 04:34:14;;;;;;;11.15;4.32;;;12.70;99.90;;;;;;4944856;28;20039;-80
2023/07/17 04:36:40;;;;;;;10.27;4.03;;;12.70;99.90;;;;;;4944280;29;20038;-80
2023/07/17 04:39:06;;;;;;;12.30;4.35;;;12.70;99.90;;;;;;4941881;29;20039;-81
2023/07/17 04:41:32;;;;;;;11.10;4.50;;;12.70;99.90;;;;;;4943060;29;20443;-81
2023/07/17 04:43:57;;;;;;;12.50;5.13;;;12.80;99.90;;;;;;4944219;29;20126;-81
2023/07/17 04:46:24;;;;;;;18.67;5.57;;;12.90;99.90;;;;;;4943097;28;20074;-80
2023/07/17 04:48:50;;;;;;;12.73;4.93;;;13.00;99.90;;;;;;4942317;29;20031;-80
2023/07/17 04:51:15;;;;;;;12.13;5.13;;;13.10;99.90;;;;;;4944637;29;20062;-81
2023/07/17 04:53:41;;;;;;;17.73;6.00;;;13.20;99.90;;;;;;4945017;28;20612;-81
2023/07/17 04:56:06;;;;;;;13.35;5.40;;;13.30;99.90;;;;;;4941106;29;20035;-80
2023/07/17 04:58:32;;;;;;;14.82;5.40;;;13.50;99.90;;;;;;4943859;29;20508;-81
2023/07/17 05:00:59;;;;;;;13.98;5.63;;;13.60;99.90;;;;;;4945422;29;20031;-81
2023/07/17 05:03:24;;;;;;;15.32;5.88;;;13.90;99.90;;;;;;4945138;29;20043;-81
2023/07/17 05:05:51;;;;;;;12.32;5.53;;;14.10;99.90;;;;;;4943100;29;20037;-81
2023/07/17 05:08:20;;;;;;;13.40;5.00;;;14.30;99.90;;;;;;4928516;29;20083;-81
2023/07/17 05:11:02;;;;;;;12.73;5.20;;;14.40;99.90;;;;;;4935253;29;20082;-81
2023/07/17 05:13:28;;;;;;;12.43;5.15;;;14.40;99.90;;;;;;4944755;28;20038;-80
2023/07/17 05:15:54;;;;;;;13.82;5.47;;;14.60;99.90;;;;;;4945549;29;20035;-81
2023/07/17 05:18:20;;;;;;;16.02;5.70;;;14.70;99.90;;;;;;4932664;29;20020;-81
2023/07/17 05:20:47;;;;;;;12.27;4.90;;;14.90;99.90;;;;;;4945166;29;20035;-81
2023/07/17 05:23:14;;;;;;;13.35;5.32;;;15.10;99.90;;;;;;4943814;29;20035;-81
2023/07/17 05:25:39;;;;;;;13.63;5.38;;;15.40;99.90;;;;;;4943638;29;20265;-81
2023/07/17 05:28:05;;;;;;;11.60;5.10;;;15.70;99.90;;;;;;4945052;29;20579;-81
2023/07/17 05:30:34;;;;;;;14.85;5.15;;;15.90;99.90;;;;;;4957477;28;20039;-81
2023/07/17 05:33:01;;;;;;;12.02;5.28;;;16.00;99.90;;;;;;4940016;29;20043;-81
2023/07/17 05:35:26;;;;;;;14.20;4.80;;;16.20;99.90;;;;;;4932201;29;20034;-80
2023/07/17 05:37:53;;;;;;;11.98;4.80;;;16.30;99.90;;;;;;4929887;29;20036;-80
2023/07/17 05:40:19;;;;;;;13.43;4.85;;;16.40;99.90;;;;;;4938613;29;20039;-80
2023/07/17 05:42:45;;;;;;;14.48;5.78;;;16.40;99.90;;;;;;4944191;29;20035;-80
2023/07/17 05:45:10;;;;;;;9.70;4.88;;;16.40;99.90;;;;;;4940303;28;20058;-81
2023/07/17 05:47:40;;;;;;;11.27;4.95;;;16.40;99.90;;;;;;4946586;28;21050;-81
2023/07/17 05:50:07;;;;;;;12.77;4.88;;;16.40;99.90;;;;;;4940628;29;20032;-80
2023/07/17 05:52:32;;;;;;;12.57;4.70;;;16.50;99.90;;;;;;4947903;29;20037;-81
2023/07/17 05:54:58;;;;;;;14.25;5.00;;;16.50;99.90;;;;;;4938493;29;20036;-81
2023/07/17 05:57:24;;;;;;;12.05;4.45;;;16.40;99.90;;;;;;4948460;29;20028;-81
2023/07/17 05:59:49;;;;;;;9.52;4.32;;;16.40;99.90;;;;;;4944659;29;20039;-81
2023/07/17 06:02:15;;;;;;;10.50;4.90;;;16.40;99.90;;;;;;4942417;29;20210;-80
2023/07/17 06:04:41;;;;;;;14.25;4.90;;;16.20;99.90;;;;;;4947384;29;20043;-82
2023/07/17 06:07:07;;;;;;;446.08;298.35;;;16.10;99.90;;;;;;4946746;29;20074;-82
2023/07/17 06:09:36;;;;;;;37.35;22.27;;;15.90;99.90;;;;;;4948893;29;20114;-82
2023/07/17 06:12:02;;;;;;;12.43;6.65;;;15.90;99.90;;;;;;4944089;29;20393;-81
2023/07/17 06:14:27;;;;;;;11.93;4.97;;;16.00;99.90;;;;;;4946783;28;20038;-81
2023/07/17 06:16:53;;;;;;;11.63;5.10;;;16.10;99.90;;;;;;4940105;28;20039;-81
2023/07/17 06:19:19;;;;;;;15.55;4.97;;;16.20;99.90;;;;;;4937161;29;20027;-81
2023/07/17 06:21:44;;;;;;;10.65;4.75;;;16.40;99.90;;;;;;4942844;29;20138;-80
2023/07/17 06:24:10;;;;;;;15.20;5.15;;;16.50;99.90;;;;;;4935577;28;20035;-81
2023/07/17 06:26:36;;;;;;;96.90;59.85;;;16.50;99.90;;;;;;4934443;28;20042;-81
2023/07/17 06:29:03;;;;;;;16.02;6.35;;;16.50;99.90;;;;;;4934007;29;20189;-82
2023/07/17 06:31:29;;;;;;;13.93;5.43;;;16.70;99.90;;;;;;4936148;29;20035;-81
2023/07/17 06:33:54;;;;;;;13.25;5.20;;;16.90;99.90;;;;;;4937161;29;20032;-81
2023/07/17 06:36:20;;;;;;;15.23;5.05;;;17.20;99.90;;;;;;4939649;29;20487;-81
2023/07/17 06:38:45;;;;;;;16.98;4.93;;;17.50;99.90;;;;;;4932386;29;20071;-81
2023/07/17 06:41:11;;;;;;;12.20;5.30;;;17.80;99.90;;;;;;4946865;29;20065;-82
2023/07/17 06:43:36;;;;;;;12.48;5.10;;;18.20;99.90;;;;;;4947286;29;20035;-81
2023/07/17 06:46:02;;;;;;;11.93;4.63;;;18.60;99.90;;;;;;4943107;29;20406;-81
2023/07/17 06:48:28;;;;;;;14.85;4.38;;;19.00;99.90;;;;;;4929026;29;20039;-82
2023/07/17 06:50:53;;;;;;;10.55;4.18;;;19.00;99.90;;;;;;4928783;29;20031;-81
2023/07/17 06:53:19;;;;;;;8.63;3.58;;;18.90;99.90;;;;;;4929054;29;20047;-80
2023/07/17 06:55:44;;;;;;;8.23;4.30;;;18.80;99.90;;;;;;4937620;29;20031;-83
2023/07/17 06:58:10;;;;;;;7.95;3.53;;;18.70;99.90;;;;;;4942306;28;20035;-82
2023/07/17 07:00:36;;;;;;;10.48;3.83;;;18.60;99.90;;;;;;4947152;29;20066;-81
2023/07/17 07:03:02;;;;;;;9.48;3.78;;;18.90;99.90;;;;;;4946463;29;20034;-81
2023/07/17 07:05:27;;;;;;;7.18;3.60;;;19.10;99.90;;;;;;4945764;28;20419;-82
2023/07/17 07:07:53;;;;;;;8.40;4.10;;;19.30;99.90;;;;;;4943283;29;20070;-82
2023/07/17 07:10:18;;;;;;;9.98;4.15;;;19.50;99.90;;;;;;4934219;29;20033;-82
2023/07/17 07:12:44;;;;;;;11.13;4.05;;;19.50;99.90;;;;;;4946576;29;20465;-81
2023/07/17 07:15:10;;;;;;;12.57;3.70;;;19.60;99.90;;;;;;4935544;29;20039;-82
2023/07/17 07:17:36;;;;;;;8.00;3.45;;;19.40;99.90;;;;;;4943274;29;20090;-81
2023/07/17 07:20:03;;;;;;;11.43;3.88;;;19.00;99.90;;;;;;4938817;29;20107;-82
2023/07/17 07:22:28;;;;;;;10.82;4.07;;;18.60;99.90;;;;;;4946720;29;20577;-81
2023/07/17 07:24:54;;;;;;;9.60;3.50;;;18.50;99.90;;;;;;4590701;28;10000981;-81
2023/07/17 07:27:19;;;;;;;11.70;3.47;;;18.50;99.90;;;;;;4938190;28;20394;-81
2023/07/17 07:29:45;;;;;;;9.80;3.70;;;18.60;99.90;;;;;;4926023;29;20079;-83
2023/07/17 07:32:10;;;;;;;7.03;3.17;;;18.60;99.90;;;;;;4929863;29;20106;-83
2023/07/17 07:34:36;;;;;;;9.80;3.55;;;18.80;99.90;;;;;;4933242;29;20094;-81
2023/07/17 07:37:02;;;;;;;6.65;2.72;;;18.90;99.90;;;;;;4939384;29;20077;-82
2023/07/17 07:39:28;;;;;;;8.13;3.10;;;19.20;99.90;;;;;;4948027;28;20491;-81
2023/07/17 07:41:54;;;;;;;7.03;3.00;;;19.80;99.90;;;;;;4934651;29;20045;-82
2023/07/17 07:44:19;;;;;;;7.20;2.70;;;20.90;99.90;;;;;;4955487;28;20514;-82
2023/07/17 07:46:45;;;;;;;4.53;1.92;;;22.10;99.90;;;;;;4936646;29;20043;-80
2023/07/17 07:49:10;;;;;;;4.22;1.67;;;23.60;99.90;;;;;;4936920;29;20031;-80
2023/07/17 07:51:36;;;;;;;5.80;1.45;;;25.60;95.10;;;;;;4929887;29;20040;-81
2023/07/17 07:54:03;;;;;;;3.35;1.45;;;26.30;84.20;;;;;;4935404;29;20035;-82
2023/07/17 07:56:28;;;;;;;4.85;1.42;;;26.60;82.30;;;;;;4943129;29;20110;-83
2023/07/17 07:58:54;;;;;;;5.13;1.60;;;28.20;76.10;;;;;;4942629;29;20110;-81
2023/07/17 08:01:19;;;;;;;5.18;1.60;;;30.50;66.70;;;;;;4941775;29;20044;-78
2023/07/17 08:03:45;;;;;;;6.65;1.60;;;31.90;58.00;;;;;;4941727;29;20077;-80
2023/07/17 08:06:11;;;;;;;3.58;1.42;;;33.60;55.40;;;;;;4935953;29;20482;-79
2023/07/17 08:08:36;;;;;;;5.53;1.52;;;33.70;53.10;;;;;;4937088;29;20088;-79
2023/07/17 08:11:02;;;;;;;3.40;1.30;;;32.70;51.40;;;;;;4931818;28;20023;-79
2023/07/17 08:13:27;;;;;;;5.22;1.20;;;32.10;51.60;;;;;;4930284;29;20032;-80
2023/07/17 08:15:53;;;;;;;4.10;1.60;;;32.60;52.20;;;;;;4937062;29;20039;-82
2023/07/17 08:18:18;;;;;;;5.90;1.65;;;33.40;50.00;;;;;;4938063;29;20036;-83
2023/07/17 08:20:44;;;;;;;5.00;1.30;;;34.80;48.00;;;;;;4943672;29;20085;-81
2023/07/17 08:23:10;;;;;;;4.78;1.20;;;35.90;46.70;;;;;;4936479;29;20514;-81
2023/07/17 08:25:35;;;;;;;2.13;0.90;;;35.40;44.40;;;;;;4933099;29;20035;-81
2023/07/17 08:28:01;;;;;;;4.22;1.30;;;34.70;44.50;;;;;;4938140;29;20039;-82
2023/07/17 08:30:26;;;;;;;4.75;1.00;;;35.50;45.50;;;;;;4937116;29;20070;-83
2023/07/17 08:32:53;;;;;;;4.28;1.40;;;35.50;45.10;;;;;;4933028;28;20062;-82
2023/07/17 08:35:19;;;;;;;7.13;1.42;;;35.20;44.90;;;;;;4931323;29;20134;-81
2023/07/17 08:37:45;;;;;;;2.38;1.00;;;35.00;43.50;;;;;;4939659;28;20035;-84
2023/07/17 08:40:11;;;;;;;5.68;1.27;;;34.40;46.30;;;;;;4943415;28;20451;-83
2023/07/17 08:42:38;;;;;;;4.55;1.20;;;34.40;46.40;;;;;;4930906;28;20122;-83
2023/07/17 08:45:04;;;;;;;6.70;1.80;;;32.30;47.00;;;;;;4938423;28;20051;-85
2023/07/17 08:47:30;;;;;;;7.25;1.80;;;30.30;51.60;;;;;;4940603;29;20080;-83
2023/07/17 08:49:58;;;;;;;4.80;1.00;;;29.60;53.30;;;;;;4937157;28;20035;-83
2023/07/17 08:52:27;;;;;;;6.40;1.13;;;29.70;56.00;;;;;;4936317;29;20093;-84
2023/07/17 08:54:52;;;;;;;5.00;1.35;;;31.20;50.20;;;;;;4935222;29;20023;-84
2023/07/17 08:57:19;;;;;;;6.30;1.40;;;32.10;51.10;;;;;;4934613;29;20525;-85
2023/07/17 08:59:45;;;;;;;5.45;1.00;;;33.50;47.60;;;;;;4933456;29;20047;-83
2023/07/17 09:02:11;;;;;;;4.25;0.98;;;32.70;48.60;;;;;;4932662;29;20035;-84
2023/07/17 09:04:37;;;;;;;4.00;0.80;;;32.40;47.20;;;;;;4938823;29;20306;-83
2023/07/17 09:07:03;;;;;;;4.35;0.90;;;32.90;49.40;;;;;;4938530;29;20054;-81
2023/07/17 09:09:28;;;;;;;3.30;0.77;;;32.80;46.10;;;;;;4938800;28;20268;-83
2023/07/17 09:12:11;;;;;;;5.25;0.98;;;31.70;49.30;;;;;;4935524;29;20094;-81
2023/07/17 09:14:38;;;;;;;3.35;1.00;;;32.60;49.90;;;;;;4937769;29;20035;-83
2023/07/17 09:17:07;;;;;;;3.20;0.95;;;35.00;47.80;;;;;;4939747;28;20109;-86
2023/07/17 09:19:34;;;;;;;6.00;1.02;;;34.70;42.70;;;;;;4943104;28;20031;-83
2023/07/17 09:22:04;;;;;;;3.80;1.02;;;32.30;46.10;;;;;;4938626;29;20050;-83
2023/07/17 09:24:33;;;;;;;3.20;0.88;;;32.80;49.00;;;;;;4937333;28;20035;-83
2023/07/17 09:26:58;;;;;;;6.40;0.93;;;33.60;47.80;;;;;;4945123;28;20294;-83
2023/07/17 09:29:24;;;;;;;6.60;1.13;;;35.10;46.80;;;;;;4938793;28;20330;-83
2023/07/17 09:31:50;;;;;;;3.28;0.70;;;35.50;46.40;;;;;;4942942;28;20036;-87
2023/07/17 09:34:16;;;;;;;3.13;0.55;;;35.00;42.40;;;;;;4595948;29;9999592;-85
2023/07/17 09:36:43;;;;;;;1.17;0.40;;;32.90;42.90;;;;;;4935839;29;20031;-85
2023/07/17 09:39:10;;;;;;;2.15;0.35;;;30.10;45.70;;;;;;4935087;29;20036;-83
2023/07/17 09:41:36;;;;;;;2.60;0.60;;;28.10;49.60;;;;;;4934304;29;20034;-82
2023/07/17 09:44:05;;;;;;;3.83;0.50;;;26.70;54.30;;;;;;4934164;29;20039;-84
2023/07/17 09:46:40;;;;;;;2.55;0.40;;;25.90;58.80;;;;;;4932079;29;20020;-85
2023/07/17 09:49:07;;;;;;;3.13;0.50;;;25.30;59.90;;;;;;4930879;29;20031;-86
2023/07/17 09:51:32;;;;;;;1.35;0.40;;;24.70;63.40;;;;;;4938611;28;20069;-86
2023/07/17 09:53:58;;;;;;;1.30;0.40;;;23.60;68.50;;;;;;4940300;29;20559;-88
2023/07/17 09:56:28;;;;;;;1.98;0.32;;;23.20;80.00;;;;;;4942743;29;20039;-85
2023/07/17 09:59:00;;;;;;;2.13;0.50;;;22.60;96.30;;;;;;4942526;29;20037;-85
2023/07/17 10:01:27;;;;;;;2.05;0.50;;;22.10;94.70;;;;;;4942454;29;20035;-86
2023/07/17 10:03:52;;;;;;;2.28;0.65;;;21.90;96.20;;;;;;4941036;29;20030;-87
2023/07/17 10:06:19;;;;;;;3.45;0.65;;;21.30;99.90;;;;;;4941018;29;20035;-89
2023/07/17 10:08:47;;;;;;;4.05;0.75;;;20.50;99.90;;;;;;4941309;29;20051;-87
2023/07/17 10:11:17;;;;;;;4.07;0.75;;;20.20;99.90;;;;;;4933332;29;20419;-89
2023/07/17 10:13:47;;;;;;;1.95;0.77;;;20.00;99.90;;;;;;4946449;28;20514;-88
2023/07/17 10:16:15;;;;;;;7.32;0.90;;;19.70;99.90;;;;;;4942266;29;20027;-89
2023/07/17 10:18:46;;;;;;;7.63;1.10;;;19.90;99.90;;;;;;4938943;29;20767;-89
2023/07/17 10:21:17;;;;;;;5.38;0.90;;;20.20;99.90;;;;;;4936041;29;20040;-88
2023/07/17 10:23:45;;;;;;;5.53;1.20;;;20.70;99.90;;;;;;4934891;29;20143;-88
2023/07/17 10:26:13;;;;;;;2.88;0.90;;;21.30;99.90;;;;;;4936925;29;20031;-89
2023/07/17 10:28:39;;;;;;;8.70;1.60;;;21.90;99.90;;;;;;4934755;28;20043;-90
2023/07/17 10:31:19;;;;;;;5.40;1.20;;;21.70;99.90;;;;;;4935287;29;20031;-88
2023/07/17 10:33:55;;;;;;;3.75;0.80;;;21.40;99.90;;;;;;4951968;28;20031;-87
2023/07/17 10:36:42;;;;;;;7.57;1.27;;;21.40;99.90;;;;;;4934348;29;20798;-89
2023/07/17 10:39:11;;;;;;;4.55;0.80;;;21.80;99.90;;;;;;4938766;29;20759;-87
2023/07/17 10:41:37;;;;;;;4.53;0.90;;;23.00;99.90;;;;;;4942303;28;20023;-89
2023/07/17 10:44:05;;;;;;;3.22;0.80;;;26.20;99.90;;;;;;4933108;29;20684;-87
2023/07/17 10:46:33;;;;;;;5.97;1.08;;;28.60;93.80;;;;;;4938439;29;20019;-88
2023/07/17 10:49:08;;;;;;;6.53;0.73;;;31.10;90.00;;;;;;4936280;28;20042;-88
2023/07/17 10:51:36;;;;;;;3.88;0.80;;;32.60;63.90;;;;;;4932184;29;20035;-85
2023/07/17 10:54:02;;;;;;;5.85;0.98;;;34.40;61.60;;;;;;4936157;29;20027;-84
2023/07/17 10:56:31;;;;;;;5.20;0.77;;;35.50;51.90;;;;;;4932213;28;20400;-84
2023/07/17 10:58:57;;;;;;;4.68;0.98;;;34.70;50.50;;;;;;4941321;29;20031;-83
2023/07/17 11:01:22;;;;;;;5.35;0.82;;;33.20;51.30;;;;;;4940375;29;20126;-86
2023/07/17 11:03:48;;;;;;;5.78;0.70;;;32.40;53.40;;;;;;4939284;29;20388;-85
2023/07/17 11:06:15;;;;;;;3.63;1.17;;;33.10;55.30;;;;;;4940818;29;20088;-85
2023/07/17 11:08:42;;;;;;;3.80;0.88;;;33.90;52.00;;;;;;4938592;29;20882;-83
2023/07/17 11:11:09;;;;;;;4.35;0.60;;;34.90;52.60;;;;;;4941935;28;20117;-84
2023/07/17 11:13:34;;;;;;;5.13;1.05;;;35.90;48.30;;;;;;4937317;29;20415;-85
2023/07/17 11:16:10;;;;;;;7.35;1.02;;;35.20;46.80;;;;;;4940647;29;20042;-84
2023/07/17 11:18:51;;;;;;;6.38;1.30;;;35.00;48.60;;;;;;4933999;29;20626;-82
2023/07/17 11:21:21;;;;;;;6.38;1.00;;;33.70;48.10;;;;;;4933607;29;20046;-83
2023/07/17 11:23:54;;;;;;;6.20;1.05;;;34.20;49.10;;;;;;4934617;29;20042;-84
2023/07/17 11:26:31;;;;;;;2.35;0.52;;;34.30;47.90;;;;;;4938083;29;20118;-87
2023/07/17 11:28:59;;;;;;;5.63;0.88;;;34.70;47.90;;;;;;4937710;29;20027;-84
2023/07/17 11:31:44;;;;;;;4.78;0.85;;;35.00;50.70;;;;;;4934836;29;20024;-84
2023/07/17 11:34:11;;;;;;;7.88;1.05;;;35.00;47.00;;;;;;4937484;29;20030;-82
2023/07/17 11:36:43;;;;;;;6.93;1.00;;;33.70;47.20;;;;;;4937505;29;20031;-84
2023/07/17 11:39:13;;;;;;;3.85;0.93;;;31.60;54.20;;;;;;4931133;29;20043;-82
2023/07/17 11:41:47;;;;;;;4.45;0.88;;;30.20;56.80;;;;;;4933113;29;20066;-84
2023/07/17 11:44:23;;;;;;;4.10;0.63;;;29.40;61.70;;;;;;4929020;28;20043;-83
2023/07/17 11:46:54;;;;;;;7.60;1.10;;;28.90;61.60;;;;;;4929332;29;20043;-84
2023/07/17 11:49:20;;;;;;;4.47;0.70;;;28.60;64.70;;;;;;4929803;29;20035;-83
2023/07/17 11:51:46;;;;;;;7.40;0.90;;;28.20;64.70;;;;;;4931687;29;20038;-85
2023/07/17 11:54:12;;;;;;;5.75;0.90;;;27.90;59.60;;;;;;4932764;29;20166;-84
2023/07/17 11:56:41;;;;;;;6.70;1.00;;;27.00;61.00;;;;;;4938774;29;20031;-86
2023/07/17 11:59:19;;;;;;;5.07;0.93;;;26.70;70.30;;;;;;4937556;29;20398;-85
2023/07/17 12:01:45;;;;;;;5.95;1.00;;;26.50;74.60;;;;;;4937590;29;20024;-85
2023/07/17 12:04:25;;;;;;;4.80;0.80;;;26.80;68.40;;;;;;4938013;29;20525;-83
2023/07/17 12:06:53;;;;;;;7.00;1.00;;;26.40;72.40;;;;;;4932860;29;20067;-82
2023/07/17 12:09:19;;;;;;;5.68;0.88;;;26.50;72.30;;;;;;4931000;28;20055;-84
2023/07/17 12:11:45;;;;;;;7.07;1.10;;;26.10;69.30;;;;;;4942089;28;20047;-84
2023/07/17 12:14:13;;;;;;;8.63;1.08;;;25.30;72.40;;;;;;4938902;29;20027;-83
2023/07/17 12:16:39;;;;;;;7.43;0.90;;;25.30;81.30;;;;;;4942439;28;20086;-86
2023/07/17 12:19:04;;;;;;;5.85;1.20;;;25.70;80.00;;;;;;4934193;29;20043;-85
2023/07/17 12:21:30;;;;;;;4.80;0.70;;;26.50;82.50;;;;;;4932496;29;20020;-84
2023/07/17 12:23:56;;;;;;;6.68;1.00;;;27.00;70.60;;;;;;4933506;29;20028;-84
2023/07/17 12:26:21;;;;;;;6.72;1.15;;;26.80;72.00;;;;;;4939666;28;20031;-85
2023/07/17 12:28:47;;;;;;;4.95;0.82;;;26.80;75.60;;;;;;4936815;29;20041;-83
2023/07/17 12:31:12;;;;;;;5.25;1.00;;;27.00;79.00;;;;;;4934757;29;20036;-85
2023/07/17 12:33:38;;;;;;;5.63;0.70;;;26.60;71.10;;;;;;4935343;29;20059;-84
2023/07/17 12:36:04;;;;;;;5.65;1.08;;;26.30;69.80;;;;;;4929239;29;20031;-84
2023/07/17 12:38:29;;;;;;;6.95;1.00;;;25.80;70.20;;;;;;4934319;29;20387;-83
2023/07/17 12:40:55;;;;;;;7.00;0.85;;;25.90;72.60;;;;;;4957739;28;20055;-86